Weather at Port Alsworth Airport

Public forecast

Using degrees Fahrenheit for public forecast. Weather courtesy of forecast.io.

Closest aviation weather report (METAR) to Port Alsworth Airport

Report is more than 6 hours old.

Closest report is Iliamna Airport, 32.1 nm (59.4 km) SSW. Retrieved 2021/06/13 01:53 UTC (8 hours ago):

PAIL 130153Z AUTO 24010G15KT 10SM BKN035 BKN043 14/07 A2987 RMK AO2 SLP115 T01390072 TSNO

Closest aviation forecast (TAF) to Port Alsworth Airport

Closest forecast is Iliamna Airport, 32.1 nm (59.4 km) SSW. Retrieved 2021/06/13 06:36 UTC (3 hours ago):

TAF PAIL 130534Z 1306/1406 23008KT P6SM SCT025 OVC050